createdAt,value
2018-09-30T00:02:40.049Z,80.20
2018-09-30T00:05:45.441Z,80.50
2018-09-30T00:08:50.830Z,81.10
2018-09-30T00:11:56.233Z,81.20
2018-09-30T00:15:01.628Z,81.40
2018-09-30T00:18:07.414Z,81.40
2018-09-30T00:21:12.807Z,81.20
2018-09-30T00:24:23.410Z,81.10
2018-09-30T00:27:28.797Z,81.30
2018-09-30T00:30:34.184Z,81.20
2018-09-30T00:33:44.666Z,81.00
2018-09-30T00:36:50.070Z,80.90
2018-09-30T00:39:55.458Z,80.90
2018-09-30T00:43:00.868Z,80.80
2018-09-30T00:46:06.307Z,81.20
2018-09-30T00:49:11.709Z,81.20
2018-09-30T00:52:17.111Z,81.50
2018-09-30T00:55:22.489Z,81.00
2018-09-30T00:58:27.903Z,80.80
2018-09-30T01:01:33.294Z,80.60
2018-09-30T01:04:38.696Z,80.80
2018-09-30T01:07:44.086Z,80.60
2018-09-30T01:10:49.466Z,80.10
2018-09-30T01:13:55.042Z,80.10
2018-09-30T01:17:00.434Z,80.00
2018-09-30T01:20:05.834Z,79.90
2018-09-30T01:23:11.265Z,79.80
2018-09-30T01:26:16.648Z,79.50
2018-09-30T01:29:22.059Z,79.30
2018-09-30T01:32:27.450Z,79.50
2018-09-30T01:35:32.874Z,79.40
2018-09-30T01:38:38.491Z,79.50
2018-09-30T01:41:43.862Z,79.70
2018-09-30T01:44:49.291Z,79.70
2018-09-30T01:47:54.854Z,81.30
2018-09-30T01:51:00.237Z,81.50
2018-09-30T01:54:05.655Z,81.30
2018-09-30T01:57:11.042Z,81.50
2018-09-30T02:00:17.201Z,81.60
2018-09-30T02:03:22.653Z,81.30
2018-09-30T02:06:28.238Z,81.10
2018-09-30T02:09:34.147Z,80.60
2018-09-30T02:12:39.571Z,80.70
2018-09-30T02:15:44.946Z,80.80
2018-09-30T02:18:50.361Z,80.90
2018-09-30T02:21:55.738Z,81.10
2018-09-30T02:25:01.153Z,81.70
2018-09-30T02:28:06.565Z,81.60
2018-09-30T02:31:11.956Z,81.60
2018-09-30T02:34:17.378Z,81.30
2018-09-30T02:37:23.090Z,81.00
2018-09-30T02:40:28.483Z,81.30
2018-09-30T02:43:33.869Z,80.50
2018-09-30T02:46:39.250Z,80.60
2018-09-30T02:49:44.641Z,80.70
2018-09-30T02:52:50.015Z,81.00
2018-09-30T02:55:55.403Z,81.00
2018-09-30T02:59:00.815Z,80.80
2018-09-30T03:02:07.226Z,81.10
2018-09-30T03:05:12.994Z,81.10
2018-09-30T03:08:23.594Z,81.40
2018-09-30T03:11:28.995Z,81.50
2018-09-30T03:14:34.418Z,81.30
2018-09-30T03:17:39.947Z,81.10
2018-09-30T03:20:45.336Z,81.10
2018-09-30T03:23:50.747Z,80.80
2018-09-30T03:26:56.104Z,81.30
2018-09-30T03:30:01.496Z,81.50
2018-09-30T03:33:06.947Z,81.60
2018-09-30T03:36:12.451Z,81.80
2018-09-30T03:39:18.272Z,81.80
2018-09-30T03:42:23.695Z,81.80
2018-09-30T03:45:29.101Z,81.80
2018-09-30T03:48:34.466Z,81.80
2018-09-30T03:51:40.274Z,82.20
2018-09-30T03:54:45.728Z,81.80
2018-09-30T03:57:51.115Z,82.00
2018-09-30T04:00:56.521Z,82.20
2018-09-30T04:04:02.634Z,82.00
2018-09-30T04:07:08.042Z,82.00
2018-09-30T04:10:13.527Z,82.10
2018-09-30T04:13:19.099Z,82.50
2018-09-30T04:16:24.515Z,82.40
2018-09-30T04:19:30.484Z,81.90
2018-09-30T04:22:35.851Z,81.40
2018-09-30T04:25:41.261Z,80.90
2018-09-30T04:28:46.650Z,80.90
2018-09-30T04:31:52.043Z,80.80
2018-09-30T04:34:57.491Z,80.30
2018-09-30T04:38:02.854Z,80.60
2018-09-30T04:41:08.679Z,80.60
2018-09-30T04:44:14.083Z,80.50
2018-09-30T04:47:19.486Z,80.80
2018-09-30T04:50:24.934Z,80.70
2018-09-30T04:53:30.321Z,79.80
2018-09-30T04:56:35.728Z,79.70
2018-09-30T04:59:41.156Z,79.80
2018-09-30T05:02:46.566Z,79.70
2018-09-30T05:05:52.024Z,79.30
2018-09-30T05:08:57.599Z,79.30
2018-09-30T05:12:03.065Z,79.30
2018-09-30T05:15:08.822Z,79.70
2018-09-30T05:18:14.186Z,79.90
2018-09-30T05:21:19.584Z,80.10
2018-09-30T05:24:24.982Z,80.20
2018-09-30T05:27:30.395Z,80.40
2018-09-30T05:30:35.851Z,80.40
2018-09-30T05:33:41.246Z,80.90
2018-09-30T05:36:46.654Z,80.90
2018-09-30T05:39:52.046Z,80.70
2018-09-30T05:42:57.443Z,81.00
2018-09-30T05:46:02.856Z,81.10
2018-09-30T05:49:08.897Z,80.80
2018-09-30T05:52:14.607Z,80.80
2018-09-30T05:55:20.030Z,79.80
2018-09-30T05:58:25.419Z,80.80
2018-09-30T06:01:30.819Z,80.00
2018-09-30T06:04:36.237Z,80.00
2018-09-30T06:07:41.643Z,79.60
2018-09-30T06:10:47.056Z,79.60
2018-09-30T06:13:52.468Z,79.00
2018-09-30T06:16:58.077Z,78.90
2018-09-30T06:20:03.493Z,77.80
2018-09-30T06:23:09.091Z,77.30
2018-09-30T06:26:14.496Z,77.30
2018-09-30T06:29:20.362Z,76.90
2018-09-30T06:32:25.787Z,78.10
2018-09-30T06:35:31.229Z,77.80
2018-09-30T06:38:36.635Z,77.80
2018-09-30T06:41:42.041Z,77.30
2018-09-30T06:44:47.470Z,77.30
2018-09-30T06:47:53.378Z,77.20
2018-09-30T06:50:58.912Z,77.20
2018-09-30T06:54:04.454Z,77.10
2018-09-30T06:57:10.245Z,78.40
2018-09-30T07:00:15.635Z,77.50
2018-09-30T07:03:21.058Z,77.20
2018-09-30T07:06:26.499Z,77.10
2018-09-30T07:09:31.873Z,77.20
2018-09-30T07:12:37.278Z,77.90
2018-09-30T07:15:43.358Z,77.20
2018-09-30T07:18:48.744Z,76.70
2018-09-30T07:21:54.162Z,77.20
2018-09-30T07:24:59.559Z,76.90
2018-09-30T07:28:04.958Z,77.10
2018-09-30T07:31:10.411Z,76.90
2018-09-30T07:34:15.827Z,76.30
2018-09-30T07:37:21.574Z,75.60
2018-09-30T07:40:27.553Z,74.70
2018-09-30T07:43:32.950Z,74.70
2018-09-30T07:46:38.518Z,74.40
2018-09-30T07:49:44.122Z,73.80
2018-09-30T07:52:49.527Z,73.80
2018-09-30T07:55:54.915Z,73.10
2018-09-30T07:59:00.702Z,72.90
2018-09-30T08:02:06.182Z,72.90
2018-09-30T08:05:11.906Z,73.30
2018-09-30T08:08:17.565Z,73.10
2018-09-30T08:11:22.946Z,69.10
2018-09-30T08:14:28.591Z,67.30
2018-09-30T08:17:34.007Z,66.50
2018-09-30T08:20:39.419Z,66.70
2018-09-30T08:23:44.818Z,66.00
2018-09-30T08:26:50.747Z,66.00
2018-09-30T08:29:56.147Z,64.30
2018-09-30T08:33:01.550Z,63.40
2018-09-30T08:36:08.951Z,61.60
2018-09-30T08:39:14.730Z,60.50
2018-09-30T08:42:20.166Z,60.00
2018-09-30T08:45:25.569Z,60.00
2018-09-30T08:48:31.030Z,59.90
2018-09-30T08:51:36.431Z,59.70
2018-09-30T08:54:41.864Z,60.00
2018-09-30T08:57:47.886Z,60.00
2018-09-30T09:00:53.389Z,59.50
2018-09-30T09:03:59.262Z,59.60
2018-09-30T09:07:04.651Z,58.70
2018-09-30T09:10:10.067Z,58.70
2018-09-30T09:13:15.507Z,58.60
2018-09-30T09:16:20.882Z,58.30
2018-09-30T09:19:26.319Z,58.90
2018-09-30T09:22:31.831Z,58.10
2018-09-30T09:25:37.618Z,58.00
2018-09-30T09:28:43.269Z,57.40
2018-09-30T09:31:48.693Z,56.50
2018-09-30T09:34:54.328Z,56.40
2018-09-30T09:38:00.054Z,56.50
2018-09-30T09:41:05.775Z,56.40
2018-09-30T09:44:11.450Z,56.30
2018-09-30T09:47:17.621Z,55.90
2018-09-30T09:50:23.399Z,55.50
2018-09-30T09:53:28.926Z,55.80
2018-09-30T09:56:34.317Z,54.00
2018-09-30T09:59:40.300Z,53.40
2018-09-30T10:02:45.706Z,53.60
2018-09-30T10:05:51.354Z,53.20
2018-09-30T10:08:56.777Z,52.50
2018-09-30T10:12:02.266Z,51.40
2018-09-30T10:15:08.054Z,51.10
2018-09-30T10:18:13.530Z,51.10
2018-09-30T10:21:18.919Z,50.10
2018-09-30T10:24:24.322Z,50.40
2018-09-30T10:27:30.530Z,49.70
2018-09-30T10:30:35.958Z,49.50
2018-09-30T10:33:41.412Z,49.50
2018-09-30T10:36:46.808Z,49.50
2018-09-30T10:39:53.211Z,49.20
2018-09-30T10:42:59.098Z,49.30
2018-09-30T10:46:04.719Z,49.40
2018-09-30T10:49:10.182Z,49.20
2018-09-30T10:52:15.564Z,48.20
2018-09-30T10:55:20.998Z,48.20
2018-09-30T10:58:26.625Z,48.10
2018-09-30T11:01:31.991Z,48.50
2018-09-30T11:04:37.404Z,48.20
2018-09-30T11:07:42.788Z,47.60
2018-09-30T11:10:48.194Z,47.80
2018-09-30T11:13:53.606Z,47.80
2018-09-30T11:16:59.043Z,47.40
2018-09-30T11:20:04.605Z,48.00
2018-09-30T11:23:09.994Z,48.00
2018-09-30T11:26:15.394Z,47.90
2018-09-30T11:29:20.898Z,48.30
2018-09-30T11:32:26.267Z,48.70
2018-09-30T11:35:31.690Z,47.60
2018-09-30T11:38:37.538Z,47.90
2018-09-30T11:41:44.398Z,47.60
2018-09-30T11:44:49.881Z,46.40
2018-09-30T11:47:55.250Z,44.50
2018-09-30T11:51:02.844Z,42.70
2018-09-30T11:54:08.603Z,41.30
2018-09-30T11:57:14.338Z,39.80
2018-09-30T12:00:19.798Z,38.30
2018-09-30T12:03:25.175Z,37.10
2018-09-30T12:06:30.589Z,36.50
2018-09-30T12:09:36.146Z,36.10
2018-09-30T12:12:41.518Z,35.10
2018-09-30T12:15:47.055Z,36.60
2018-09-30T12:18:52.539Z,35.70
2018-09-30T12:21:57.937Z,36.10
2018-09-30T12:25:03.431Z,37.30
2018-09-30T12:28:08.914Z,37.30
2018-09-30T12:31:14.327Z,35.60
2018-09-30T12:34:19.878Z,36.00
2018-09-30T12:37:25.302Z,37.20
2018-09-30T12:40:30.793Z,38.00
2018-09-30T12:43:37.370Z,36.50
2018-09-30T12:46:42.894Z,36.70
2018-09-30T12:49:48.310Z,38.00
2018-09-30T12:52:53.794Z,38.70
2018-09-30T12:55:59.266Z,40.20
2018-09-30T12:59:04.871Z,40.80
2018-09-30T13:02:10.622Z,41.10
2018-09-30T13:05:16.130Z,41.30
2018-09-30T13:08:21.726Z,41.90
2018-09-30T13:11:27.147Z,42.40
2018-09-30T13:14:32.583Z,43.60
2018-09-30T13:17:38.002Z,44.50
2018-09-30T13:20:43.462Z,44.20
2018-09-30T13:23:49.041Z,43.70
2018-09-30T13:26:54.542Z,43.40
2018-09-30T13:29:59.960Z,43.40
2018-09-30T13:33:05.429Z,44.70
2018-09-30T13:36:11.094Z,45.60
2018-09-30T13:39:16.593Z,46.10
2018-09-30T13:42:22.111Z,46.50
2018-09-30T13:45:27.613Z,46.70
2018-09-30T13:48:32.986Z,47.00
2018-09-30T13:51:38.404Z,48.00
2018-09-30T13:54:43.789Z,48.20
2018-09-30T13:57:50.263Z,48.60
2018-09-30T14:00:55.746Z,48.20
2018-09-30T14:04:01.175Z,48.00
2018-09-30T14:07:08.112Z,48.20
2018-09-30T14:10:14.256Z,48.50
2018-09-30T14:13:21.372Z,49.00
2018-09-30T14:16:27.655Z,48.40
2018-09-30T14:19:33.266Z,48.40
2018-09-30T14:22:38.739Z,48.90
2018-09-30T14:25:44.194Z,49.20
2018-09-30T14:28:49.715Z,49.90
2018-09-30T14:31:55.163Z,50.30
2018-09-30T14:35:01.497Z,51.30
2018-09-30T14:38:07.656Z,50.90
2018-09-30T14:41:13.968Z,50.40
2018-09-30T14:44:19.433Z,50.50
2018-09-30T14:47:24.910Z,50.80
2018-09-30T14:50:30.310Z,51.50
2018-09-30T14:53:36.389Z,51.80
2018-09-30T14:56:41.846Z,52.10
2018-09-30T14:59:47.330Z,52.50
2018-09-30T15:02:53.140Z,52.70
2018-09-30T15:05:58.612Z,52.40
2018-09-30T15:09:06.396Z,53.20
2018-09-30T15:12:11.846Z,52.70
2018-09-30T15:15:17.262Z,52.70
2018-09-30T15:18:22.694Z,52.50
2018-09-30T15:21:28.142Z,52.70
2018-09-30T15:24:33.557Z,52.90
2018-09-30T15:27:40.774Z,53.10
2018-09-30T15:30:46.291Z,53.40
2018-09-30T15:33:51.762Z,53.80
2018-09-30T15:36:57.180Z,53.70
2018-09-30T15:40:02.608Z,54.00
2018-09-30T15:43:08.091Z,54.10
2018-09-30T15:46:13.539Z,54.80
2018-09-30T15:49:19.033Z,54.10
2018-09-30T15:52:24.554Z,54.20
2018-09-30T15:55:30.321Z,54.10
2018-09-30T15:58:36.244Z,54.50
2018-09-30T16:01:41.674Z,54.70
2018-09-30T16:04:58.603Z,53.50
2018-09-30T16:08:04.039Z,53.80
2018-09-30T16:11:09.460Z,53.20
2018-09-30T16:14:14.902Z,53.40
2018-09-30T16:17:21.227Z,53.30
2018-09-30T16:20:27.614Z,52.80
2018-09-30T16:23:33.055Z,52.60
2018-09-30T16:26:38.442Z,52.50
2018-09-30T16:29:43.862Z,52.80
2018-09-30T16:32:49.301Z,52.60
2018-09-30T16:35:54.735Z,53.00
2018-09-30T16:39:00.174Z,53.20
2018-09-30T16:42:05.598Z,53.70
2018-09-30T16:45:11.190Z,53.90
2018-09-30T16:48:16.638Z,54.00
2018-09-30T16:51:22.058Z,54.10
2018-09-30T16:54:29.602Z,55.00
2018-09-30T16:57:35.286Z,55.00
2018-09-30T17:00:40.761Z,54.50
2018-09-30T17:03:46.218Z,55.10
2018-09-30T17:06:51.865Z,56.20
2018-09-30T17:09:57.494Z,56.30
2018-09-30T17:13:03.008Z,56.20
2018-09-30T17:16:09.139Z,56.80
2018-09-30T17:19:15.099Z,57.20
2018-09-30T17:22:20.890Z,58.10
2018-09-30T17:25:26.329Z,58.70
2018-09-30T17:28:31.786Z,58.50
2018-09-30T17:31:37.777Z,58.70
2018-09-30T17:34:43.299Z,59.20
2018-09-30T17:37:48.785Z,59.80
2018-09-30T17:40:54.498Z,60.20
2018-09-30T17:44:00.011Z,61.20
2018-09-30T17:47:05.575Z,61.50
2018-09-30T17:50:11.027Z,62.10
2018-09-30T17:53:16.598Z,62.80
2018-09-30T17:56:22.831Z,63.40
2018-09-30T17:59:28.983Z,63.70
2018-09-30T18:02:34.401Z,64.40
2018-09-30T18:05:39.878Z,64.80
2018-09-30T18:08:45.351Z,65.50
2018-09-30T18:11:50.797Z,66.10
2018-09-30T18:14:56.250Z,66.80
2018-09-30T18:18:01.703Z,67.10
2018-09-30T18:21:07.402Z,67.40
2018-09-30T18:24:12.917Z,67.50
2018-09-30T18:27:18.338Z,67.60
2018-09-30T18:30:23.771Z,67.90
2018-09-30T18:33:29.239Z,68.50
2018-09-30T18:36:35.262Z,69.10
2018-09-30T18:39:40.723Z,69.40
2018-09-30T18:42:46.338Z,70.20
2018-09-30T18:45:51.799Z,70.50
2018-09-30T18:48:57.222Z,70.30
2018-09-30T18:52:02.634Z,70.90
2018-09-30T18:55:08.093Z,71.10
2018-09-30T18:58:13.990Z,71.00
2018-09-30T19:01:19.450Z,71.70
2018-09-30T19:04:24.867Z,71.50
2018-09-30T19:07:30.767Z,71.60
2018-09-30T19:10:36.207Z,71.80
2018-09-30T19:13:41.658Z,72.10
2018-09-30T19:16:47.102Z,72.00
2018-09-30T19:19:52.550Z,72.20
2018-09-30T19:22:58.090Z,72.30
2018-09-30T19:26:03.734Z,72.50
2018-09-30T19:29:09.218Z,72.50
2018-09-30T19:32:15.371Z,72.80
2018-09-30T19:35:20.923Z,72.50
2018-09-30T19:38:26.372Z,73.00
2018-09-30T19:41:31.828Z,73.40
2018-09-30T19:44:37.495Z,73.90
2018-09-30T19:47:42.914Z,74.20
2018-09-30T19:50:48.362Z,74.40
2018-09-30T19:53:53.856Z,74.40
2018-09-30T19:56:59.475Z,74.20
2018-09-30T20:00:05.319Z,74.20
2018-09-30T20:03:11.178Z,74.10
2018-09-30T20:06:16.618Z,74.30
2018-09-30T20:09:22.046Z,74.50
2018-09-30T20:12:27.554Z,74.50
2018-09-30T20:15:33.012Z,74.80
2018-09-30T20:18:38.511Z,74.70
2018-09-30T20:21:43.957Z,74.50
2018-09-30T20:24:49.450Z,75.70
2018-09-30T20:27:55.086Z,74.90
2018-09-30T20:31:00.530Z,74.80
2018-09-30T20:34:06.249Z,75.20
2018-09-30T20:37:11.904Z,75.20
2018-09-30T20:40:17.434Z,75.00
2018-09-30T20:43:22.915Z,75.80
2018-09-30T20:46:28.345Z,75.00
2018-09-30T20:49:33.777Z,74.80
2018-09-30T20:52:39.219Z,74.70
2018-09-30T20:55:44.695Z,74.60
2018-09-30T20:58:50.318Z,75.30
2018-09-30T21:01:55.767Z,75.60
2018-09-30T21:05:13.707Z,75.00
2018-09-30T21:08:19.534Z,75.50
2018-09-30T21:11:26.141Z,74.60
2018-09-30T21:14:31.811Z,74.90
2018-09-30T21:17:37.647Z,74.20
2018-09-30T21:20:43.874Z,74.10
2018-09-30T21:23:49.295Z,73.40
2018-09-30T21:26:54.750Z,73.90
2018-09-30T21:30:00.162Z,73.40
2018-09-30T21:33:07.214Z,72.90
2018-09-30T21:36:12.663Z,73.40
2018-09-30T21:39:18.183Z,73.40
2018-09-30T21:42:23.626Z,73.50
2018-09-30T21:45:29.034Z,74.10
2018-09-30T21:48:34.533Z,73.80
2018-09-30T21:51:40.196Z,73.60
2018-09-30T21:54:45.613Z,73.40
2018-09-30T21:57:51.062Z,73.50
2018-09-30T22:01:01.726Z,73.40
2018-09-30T22:04:07.530Z,73.20
2018-09-30T22:07:13.106Z,73.00
2018-09-30T22:10:18.562Z,73.10
2018-09-30T22:13:24.415Z,73.10
2018-09-30T22:16:29.942Z,73.20
2018-09-30T22:19:35.367Z,73.10
2018-09-30T22:22:40.863Z,73.40
2018-09-30T22:25:46.588Z,73.30
2018-09-30T22:28:52.013Z,73.40
2018-09-30T22:31:57.449Z,73.40
2018-09-30T22:35:02.894Z,73.30
2018-09-30T22:38:08.331Z,73.60
2018-09-30T22:41:13.746Z,73.70
2018-09-30T22:44:19.377Z,73.70
2018-09-30T22:47:24.797Z,73.90
2018-09-30T22:50:30.529Z,74.10
2018-09-30T22:53:36.151Z,73.80
2018-09-30T22:56:41.570Z,74.10
2018-09-30T22:59:47.006Z,74.10
2018-09-30T23:02:52.449Z,74.00
2018-09-30T23:05:57.869Z,74.00
2018-09-30T23:09:03.342Z,74.10
2018-09-30T23:12:08.767Z,74.40
2018-09-30T23:15:14.543Z,74.50
2018-09-30T23:18:20.044Z,74.40
2018-09-30T23:21:25.481Z,74.40
2018-09-30T23:24:30.914Z,74.40
2018-09-30T23:27:36.346Z,74.50
2018-09-30T23:30:41.762Z,74.40
2018-09-30T23:33:47.207Z,75.20
2018-09-30T23:36:53.407Z,74.60
2018-09-30T23:39:58.923Z,74.60
2018-09-30T23:43:04.370Z,74.70
2018-09-30T23:46:09.797Z,74.80
2018-09-30T23:49:15.271Z,74.80
2018-09-30T23:52:20.714Z,74.80
2018-09-30T23:55:26.140Z,74.80
2018-09-30T23:58:31.682Z,74.90
